Time;durP1;ratioP1;P1;durP2;ratioP2;P2;SDS_P1;SDS_P2;PMS_P1;PMS_P2;Temp;Humidity;BMP_temperature;BMP_pressure;BME280_temperature;BME280_humidity;BME280_pressure;Samples;Min_cycle;Max_cycle;Signal;HPM_P1;HPM_P2
2024/01/28 00:00:34;;;;;;;26.37;10.20;;;;;;;;;;5047948;28;20412;-51
2024/01/28 00:03:00;;;;;;;33.40;9.57;;;;;;;;;;5063712;28;21009;-55
2024/01/28 00:05:26;;;;;;;25.50;9.77;;;;;;;;;;5054506;28;20185;-52
2024/01/28 00:07:52;;;;;;;24.57;9.93;;;;;;;;;;5058192;28;20228;-54
2024/01/28 00:10:18;;;;;;;29.07;9.83;;;;;;;;;;5042139;28;20587;-56
2024/01/28 00:12:44;;;;;;;24.23;8.13;;;;;;;;;;5051766;28;20175;-49
2024/01/28 00:15:11;;;;;;;24.10;9.93;;;;;;;;;;5060476;28;20187;-52
2024/01/28 00:17:37;;;;;;;25.33;9.60;;;;;;;;;;5054594;28;20421;-51
2024/01/28 00:20:05;;;;;;;26.33;9.47;;;;;;;;;;5055154;28;20429;-56
2024/01/28 00:22:31;;;;;;;26.83;9.83;;;;;;;;;;5051252;28;20422;-53
2024/01/28 00:24:57;;;;;;;27.90;9.53;;;;;;;;;;5051432;28;20418;-51
2024/01/28 00:27:23;;;;;;;26.63;10.13;;;;;;;;;;5034049;28;20458;-53
2024/01/28 00:29:49;;;;;;;31.57;9.87;;;;;;;;;;5036876;28;20417;-50
2024/01/28 00:32:16;;;;;;;25.60;9.43;;;;;;;;;;5047867;28;20419;-55
2024/01/28 00:34:42;;;;;;;23.30;9.70;;;;;;;;;;5047865;28;20266;-53
2024/01/28 00:37:08;;;;;;;27.33;9.50;;;;;;;;;;5064114;28;20554;-53
2024/01/28 00:39:35;;;;;;;27.27;10.43;;;;;;;;;;5043049;28;20520;-49
2024/01/28 00:42:01;;;;;;;27.60;10.60;;;;;;;;;;5035052;28;20670;-52
2024/01/28 00:44:27;;;;;;;26.07;9.20;;;;;;;;;;5045010;28;20413;-53
2024/01/28 00:46:55;;;;;;;22.40;9.37;;;;;;;;;;5062201;28;20469;-51
2024/01/28 00:49:29;;;;;;;24.50;9.63;;;;;;;;;;5037772;28;20203;-51
2024/01/28 00:51:54;;;;;;;24.83;9.87;;;;;;;;;;5064174;28;20424;-51
2024/01/28 00:54:20;;;;;;;26.20;9.87;;;;;;;;;;5044851;28;20414;-52
2024/01/28 00:56:46;;;;;;;25.40;9.77;;;;;;;;;;5053807;28;20275;-50
2024/01/28 00:59:12;;;;;;;20.33;9.87;;;;;;;;;;5059910;28;20210;-49
2024/01/28 01:01:39;;;;;;;23.57;9.63;;;;;;;;;;5047427;28;20246;-49
2024/01/28 01:04:05;;;;;;;20.50;9.67;;;;;;;;;;5039039;28;20423;-50
2024/01/28 01:06:31;;;;;;;28.43;8.83;;;;;;;;;;5042118;28;20465;-50
2024/01/28 01:08:57;;;;;;;25.43;9.10;;;;;;;;;;5057939;28;20433;-50
2024/01/28 01:11:23;;;;;;;18.83;8.37;;;;;;;;;;5025176;28;20472;-52
2024/01/28 01:13:51;;;;;;;21.77;8.63;;;;;;;;;;5036086;28;20707;-52
2024/01/28 01:16:17;;;;;;;30.40;10.30;;;;;;;;;;5058455;28;20561;-53
2024/01/28 01:18:44;;;;;;;21.77;9.63;;;;;;;;;;5059501;28;20434;-51
2024/01/28 01:21:10;;;;;;;28.10;11.13;;;;;;;;;;5056688;28;20684;-52
2024/01/28 01:23:36;;;;;;;27.80;10.27;;;;;;;;;;5053458;28;20407;-54
2024/01/28 01:26:02;;;;;;;22.23;10.07;;;;;;;;;;5046448;28;20905;-52
2024/01/28 01:28:31;;;;;;;22.30;9.80;;;;;;;;;;5049921;28;20225;-52
2024/01/28 01:31:02;;;;;;;25.17;10.53;;;;;;;;;;5065826;28;20470;-54
2024/01/28 01:33:27;;;;;;;29.70;12.27;;;;;;;;;;5034605;28;20512;-55
2024/01/28 01:35:53;;;;;;;28.90;11.73;;;;;;;;;;5064746;28;20511;-54
2024/01/28 01:38:20;;;;;;;22.93;10.00;;;;;;;;;;5045191;28;20206;-53
2024/01/28 01:40:46;;;;;;;27.93;10.10;;;;;;;;;;5070054;28;20236;-54
2024/01/28 01:43:13;;;;;;;27.40;10.30;;;;;;;;;;5061451;28;20821;-49
2024/01/28 01:45:40;;;;;;;26.27;9.80;;;;;;;;;;5061142;28;20409;-55
2024/01/28 01:48:16;;;;;;;28.17;10.90;;;;;;;;;;5044283;28;20466;-53
2024/01/28 01:50:42;;;;;;;23.33;10.43;;;;;;;;;;5034844;28;20777;-53
2024/01/28 01:53:09;;;;;;;23.43;9.53;;;;;;;;;;5041970;28;20422;-54
2024/01/28 01:55:36;;;;;;;27.43;10.17;;;;;;;;;;5044248;28;20410;-53
2024/01/28 01:58:03;;;;;;;21.67;9.40;;;;;;;;;;5029841;28;20934;-52
2024/01/28 02:00:29;;;;;;;25.33;10.03;;;;;;;;;;5033093;28;20417;-51
2024/01/28 02:02:55;;;;;;;22.40;9.33;;;;;;;;;;5057922;28;20500;-50
2024/01/28 02:05:21;;;;;;;22.30;9.17;;;;;;;;;;5040587;28;20909;-52
2024/01/28 02:07:47;;;;;;;24.50;9.27;;;;;;;;;;5063489;28;20214;-51
2024/01/28 02:10:14;;;;;;;30.23;11.07;;;;;;;;;;5051755;28;20191;-51
2024/01/28 02:12:40;;;;;;;32.00;10.77;;;;;;;;;;5062839;28;20670;-54
2024/01/28 02:15:07;;;;;;;23.73;10.17;;;;;;;;;;5044265;28;20415;-55
2024/01/28 02:17:33;;;;;;;24.50;9.30;;;;;;;;;;5048931;28;20830;-55
2024/01/28 02:19:59;;;;;;;29.00;8.90;;;;;;;;;;5057780;28;20453;-50
2024/01/28 02:22:25;;;;;;;23.63;8.93;;;;;;;;;;5028852;28;20507;-53
2024/01/28 02:24:51;;;;;;;21.40;8.33;;;;;;;;;;5035837;28;20568;-52
2024/01/28 02:27:17;;;;;;;24.20;8.87;;;;;;;;;;5048807;28;20215;-50
2024/01/28 02:29:43;;;;;;;26.73;9.50;;;;;;;;;;5052358;28;20963;-50
2024/01/28 02:32:18;;;;;;;25.30;9.23;;;;;;;;;;5037599;28;20206;-53
2024/01/28 02:34:44;;;;;;;26.73;9.23;;;;;;;;;;5051638;28;20170;-53
2024/01/28 02:37:11;;;;;;;28.13;10.50;;;;;;;;;;5064551;28;20832;-52
2024/01/28 02:39:37;;;;;;;22.73;9.37;;;;;;;;;;5038182;28;20436;-49
2024/01/28 02:42:03;;;;;;;26.80;9.60;;;;;;;;;;5052805;28;20436;-50
2024/01/28 02:44:29;;;;;;;21.93;9.07;;;;;;;;;;5057535;28;20968;-51
2024/01/28 02:46:56;;;;;;;20.37;8.67;;;;;;;;;;5063719;28;20206;-50
2024/01/28 02:49:23;;;;;;;17.87;8.47;;;;;;;;;;5026653;28;20706;-51
2024/01/28 02:51:49;;;;;;;21.20;8.77;;;;;;;;;;5052749;28;20413;-51
2024/01/28 02:54:15;;;;;;;24.53;9.40;;;;;;;;;;5066349;28;20423;-51
2024/01/28 02:56:41;;;;;;;20.33;8.90;;;;;;;;;;5055042;28;20432;-50
2024/01/28 02:59:07;;;;;;;21.10;8.67;;;;;;;;;;5051762;28;20561;-53
2024/01/28 03:01:33;;;;;;;22.90;10.10;;;;;;;;;;5049471;28;20421;-52
2024/01/28 03:03:59;;;;;;;18.60;7.70;;;;;;;;;;5050687;28;20194;-53
2024/01/28 03:06:25;;;;;;;22.53;8.87;;;;;;;;;;5050370;28;20238;-53
2024/01/28 03:08:51;;;;;;;21.77;9.40;;;;;;;;;;5032971;28;20243;-52
2024/01/28 03:11:17;;;;;;;20.73;8.20;;;;;;;;;;5066118;28;20194;-50
2024/01/28 03:13:43;;;;;;;23.27;9.30;;;;;;;;;;5036493;28;20729;-51
2024/01/28 03:16:10;;;;;;;23.33;8.40;;;;;;;;;;5051585;28;20540;-51
2024/01/28 03:18:36;;;;;;;22.23;8.90;;;;;;;;;;5057824;28;20191;-52
2024/01/28 03:21:02;;;;;;;23.67;8.30;;;;;;;;;;5072724;28;20436;-50
2024/01/28 03:23:28;;;;;;;28.60;8.90;;;;;;;;;;5056116;28;20259;-53
2024/01/28 03:25:55;;;;;;;20.67;7.77;;;;;;;;;;5072022;28;20452;-49
2024/01/28 03:28:21;;;;;;;23.43;8.30;;;;;;;;;;5072359;28;20471;-49
2024/01/28 03:30:47;;;;;;;21.50;8.20;;;;;;;;;;5052801;28;20489;-53
2024/01/28 03:33:13;;;;;;;31.53;9.83;;;;;;;;;;5050954;28;20190;-50
2024/01/28 03:35:39;;;;;;;23.20;8.43;;;;;;;;;;5067281;28;20187;-51
2024/01/28 03:38:06;;;;;;;24.10;8.97;;;;;;;;;;5044175;28;20215;-49
2024/01/28 03:40:32;;;;;;;25.87;9.17;;;;;;;;;;5068871;28;20210;-51
2024/01/28 03:42:58;;;;;;;26.70;7.80;;;;;;;;;;5067720;28;20525;-51
2024/01/28 03:45:24;;;;;;;22.10;8.33;;;;;;;;;;5052506;28;20183;-52
2024/01/28 03:47:50;;;;;;;17.93;7.17;;;;;;;;;;5066683;28;20463;-53
2024/01/28 03:50:19;;;;;;;17.23;7.53;;;;;;;;;;5046124;28;20198;-50
2024/01/28 03:52:45;;;;;;;17.30;7.43;;;;;;;;;;5052276;28;20177;-51
2024/01/28 03:55:11;;;;;;;20.57;8.00;;;;;;;;;;5061217;28;20455;-51
2024/01/28 03:57:40;;;;;;;24.33;8.57;;;;;;;;;;5047327;28;20422;-54
2024/01/28 04:00:07;;;;;;;20.97;7.77;;;;;;;;;;5057085;28;20182;-51
2024/01/28 04:02:33;;;;;;;22.20;8.33;;;;;;;;;;5040852;28;20476;-51
2024/01/28 04:04:59;;;;;;;15.23;7.10;;;;;;;;;;5055907;28;20531;-51
2024/01/28 04:07:25;;;;;;;23.30;7.13;;;;;;;;;;5055060;28;20629;-51
2024/01/28 04:09:51;;;;;;;16.97;6.93;;;;;;;;;;5063731;28;20402;-50
2024/01/28 04:12:17;;;;;;;16.97;6.97;;;;;;;;;;5044133;28;20192;-50
2024/01/28 04:14:43;;;;;;;22.30;7.10;;;;;;;;;;5041639;28;20723;-53
2024/01/28 04:17:09;;;;;;;19.53;7.37;;;;;;;;;;5062344;28;20194;-50
2024/01/28 04:19:35;;;;;;;21.83;6.37;;;;;;;;;;5063802;28;20229;-50
2024/01/28 04:22:01;;;;;;;18.13;7.10;;;;;;;;;;5056705;28;20199;-52
2024/01/28 04:24:26;;;;;;;18.00;7.20;;;;;;;;;;5059086;28;20425;-52
2024/01/28 04:26:53;;;;;;;18.33;6.93;;;;;;;;;;5036398;28;20212;-52
2024/01/28 04:29:19;;;;;;;18.57;7.13;;;;;;;;;;5067721;28;20209;-49
2024/01/28 04:31:45;;;;;;;26.80;7.27;;;;;;;;;;5057809;28;20428;-51
2024/01/28 04:34:11;;;;;;;17.77;7.00;;;;;;;;;;5050572;28;20794;-52
2024/01/28 04:36:37;;;;;;;17.53;6.83;;;;;;;;;;5047437;28;20186;-54
2024/01/28 04:39:03;;;;;;;15.97;6.63;;;;;;;;;;5071529;28;20298;-51
2024/01/28 04:41:29;;;;;;;23.53;6.47;;;;;;;;;;5059520;28;20232;-53
2024/01/28 04:43:55;;;;;;;17.90;6.43;;;;;;;;;;5057506;28;20436;-52
2024/01/28 04:46:21;;;;;;;17.57;6.10;;;;;;;;;;5051780;28;20550;-51
2024/01/28 04:48:47;;;;;;;21.97;6.27;;;;;;;;;;5064921;28;20289;-52
2024/01/28 04:51:13;;;;;;;17.13;5.70;;;;;;;;;;5062499;28;20179;-51
2024/01/28 04:53:39;;;;;;;18.67;6.73;;;;;;;;;;5044319;28;20419;-51
2024/01/28 04:56:05;;;;;;;16.63;6.20;;;;;;;;;;5038607;28;20660;-51
2024/01/28 04:58:31;;;;;;;21.33;6.33;;;;;;;;;;5062127;28;20205;-50
2024/01/28 05:00:57;;;;;;;27.67;6.73;;;;;;;;;;5056991;28;20517;-51
2024/01/28 05:03:23;;;;;;;18.83;6.67;;;;;;;;;;5030746;28;20630;-50
2024/01/28 05:05:49;;;;;;;20.97;6.60;;;;;;;;;;5035957;28;20179;-52
2024/01/28 05:08:15;;;;;;;16.67;6.47;;;;;;;;;;5043414;28;20247;-51
2024/01/28 05:10:41;;;;;;;18.73;6.53;;;;;;;;;;5044695;28;20187;-51
2024/01/28 05:13:07;;;;;;;18.30;6.80;;;;;;;;;;5047086;28;20683;-51
2024/01/28 05:15:33;;;;;;;21.17;6.53;;;;;;;;;;5049991;28;20423;-53
2024/01/28 05:17:59;;;;;;;20.23;6.53;;;;;;;;;;5057542;28;20437;-53
2024/01/28 05:20:25;;;;;;;21.20;7.23;;;;;;;;;;5043191;28;20191;-53
2024/01/28 05:22:51;;;;;;;20.93;7.67;;;;;;;;;;5052769;28;20633;-50
2024/01/28 05:25:17;;;;;;;19.03;7.20;;;;;;;;;;5055449;28;20193;-51
2024/01/28 05:27:44;;;;;;;22.70;6.73;;;;;;;;;;5036733;28;20535;-51
2024/01/28 05:30:10;;;;;;;19.83;6.67;;;;;;;;;;5038761;28;20176;-51
2024/01/28 05:32:36;;;;;;;20.63;6.87;;;;;;;;;;5044410;28;20432;-51
2024/01/28 05:35:03;;;;;;;27.80;6.80;;;;;;;;;;5061804;28;20425;-50
2024/01/28 05:37:33;;;;;;;21.07;7.10;;;;;;;;;;5036437;28;20193;-51
2024/01/28 05:39:58;;;;;;;17.10;6.30;;;;;;;;;;5039466;28;20423;-52
2024/01/28 05:42:25;;;;;;;17.90;6.83;;;;;;;;;;5040462;28;20444;-51
2024/01/28 05:44:50;;;;;;;21.73;6.63;;;;;;;;;;5055827;28;20178;-51
2024/01/28 05:47:16;;;;;;;21.53;7.20;;;;;;;;;;5050150;28;20515;-51
2024/01/28 05:49:42;;;;;;;19.13;6.77;;;;;;;;;;5039591;28;20202;-52
2024/01/28 05:52:08;;;;;;;19.50;6.37;;;;;;;;;;5053114;28;20179;-49
2024/01/28 05:54:35;;;;;;;17.63;7.20;;;;;;;;;;5053203;28;20608;-53
2024/01/28 05:57:01;;;;;;;18.00;7.00;;;;;;;;;;5046209;28;20246;-51
2024/01/28 05:59:27;;;;;;;22.33;7.20;;;;;;;;;;5059763;28;21008;-52
2024/01/28 06:01:53;;;;;;;15.80;7.07;;;;;;;;;;5069713;28;20244;-52
2024/01/28 06:04:19;;;;;;;23.37;7.40;;;;;;;;;;5041511;28;20180;-51
2024/01/28 06:06:45;;;;;;;17.63;6.57;;;;;;;;;;5028999;28;20463;-50
2024/01/28 06:09:11;;;;;;;22.40;7.60;;;;;;;;;;5046473;28;20442;-50
2024/01/28 06:11:37;;;;;;;20.17;6.67;;;;;;;;;;5045693;28;20183;-51
2024/01/28 06:14:03;;;;;;;19.13;7.20;;;;;;;;;;5046166;28;20219;-51
2024/01/28 06:16:29;;;;;;;15.93;6.40;;;;;;;;;;5040206;28;20559;-50
2024/01/28 06:18:56;;;;;;;13.93;6.50;;;;;;;;;;5056023;28;20255;-50
2024/01/28 06:21:22;;;;;;;25.50;6.60;;;;;;;;;;5042593;28;20686;-51
2024/01/28 06:23:48;;;;;;;20.10;6.60;;;;;;;;;;5052253;28;20418;-52
2024/01/28 06:26:16;;;;;;;19.63;6.30;;;;;;;;;;5061760;28;20428;-51
2024/01/28 06:28:42;;;;;;;17.77;6.63;;;;;;;;;;5037844;28;20238;-52
2024/01/28 06:31:08;;;;;;;17.10;6.37;;;;;;;;;;5054153;28;20504;-51
2024/01/28 06:33:34;;;;;;;16.77;6.20;;;;;;;;;;5064489;28;20448;-50
2024/01/28 06:36:01;;;;;;;16.77;5.47;;;;;;;;;;5046460;28;20465;-52
2024/01/28 06:38:27;;;;;;;17.47;6.07;;;;;;;;;;5058571;28;20214;-51
2024/01/28 06:40:55;;;;;;;16.90;6.60;;;;;;;;;;5043915;28;20979;-51
2024/01/28 06:43:22;;;;;;;20.80;6.37;;;;;;;;;;5051531;28;20451;-50
2024/01/28 06:45:47;;;;;;;18.90;6.13;;;;;;;;;;5053863;28;20420;-52
2024/01/28 06:48:13;;;;;;;15.87;6.40;;;;;;;;;;5044082;28;20478;-52
2024/01/28 06:50:39;;;;;;;21.20;5.93;;;;;;;;;;5041901;28;20218;-51
2024/01/28 06:53:05;;;;;;;13.70;4.80;;;;;;;;;;5065019;28;20178;-51
2024/01/28 06:55:31;;;;;;;15.83;6.40;;;;;;;;;;5044573;28;20183;-54
2024/01/28 06:57:57;;;;;;;21.57;7.13;;;;;;;;;;5060241;28;20586;-51
2024/01/28 07:00:23;;;;;;;18.27;6.73;;;;;;;;;;5054830;28;20199;-50
2024/01/28 07:02:50;;;;;;;20.47;7.40;;;;;;;;;;5066929;28;20178;-50
2024/01/28 07:05:16;;;;;;;26.70;8.03;;;;;;;;;;5040004;28;20183;-50
2024/01/28 07:07:42;;;;;;;24.53;9.53;;;;;;;;;;5051685;28;20477;-52
2024/01/28 07:10:09;;;;;;;20.67;7.67;;;;;;;;;;5044983;28;20410;-51
2024/01/28 07:12:35;;;;;;;19.37;6.17;;;;;;;;;;5057281;28;20251;-51
2024/01/28 07:15:01;;;;;;;20.27;5.87;;;;;;;;;;5050522;28;20898;-53
2024/01/28 07:17:27;;;;;;;20.10;6.73;;;;;;;;;;5043127;28;20655;-52
2024/01/28 07:19:53;;;;;;;15.50;5.70;;;;;;;;;;5046005;28;20501;-50
2024/01/28 07:22:19;;;;;;;17.43;6.10;;;;;;;;;;5051195;28;20194;-47
2024/01/28 07:24:45;;;;;;;20.00;5.50;;;;;;;;;;5062006;28;20191;-47
2024/01/28 07:27:11;;;;;;;13.30;5.40;;;;;;;;;;5056732;28;20539;-48
2024/01/28 07:29:37;;;;;;;23.53;6.33;;;;;;;;;;5059608;28;20207;-51
2024/01/28 07:32:03;;;;;;;16.43;5.37;;;;;;;;;;5026552;28;20183;-50
2024/01/28 07:34:29;;;;;;;17.20;5.63;;;;;;;;;;5054035;28;20179;-48
2024/01/28 07:36:57;;;;;;;18.93;5.40;;;;;;;;;;5058330;28;20419;-48
2024/01/28 07:39:23;;;;;;;15.17;5.47;;;;;;;;;;5050102;28;20390;-51
2024/01/28 07:41:49;;;;;;;15.67;6.10;;;;;;;;;;5049003;28;20421;-49
2024/01/28 07:44:15;;;;;;;22.07;6.80;;;;;;;;;;5063125;28;20428;-54
2024/01/28 07:46:41;;;;;;;17.87;6.47;;;;;;;;;;5062173;28;21036;-50
2024/01/28 07:49:10;;;;;;;16.40;6.60;;;;;;;;;;5039461;28;20245;-49
2024/01/28 07:51:36;;;;;;;19.33;8.07;;;;;;;;;;5048264;28;20176;-48
2024/01/28 07:54:02;;;;;;;21.43;8.00;;;;;;;;;;5044931;28;20818;-47
2024/01/28 07:56:28;;;;;;;21.93;7.80;;;;;;;;;;5051101;28;20420;-51
2024/01/28 07:58:54;;;;;;;28.60;9.30;;;;;;;;;;5051201;28;20282;-48
2024/01/28 08:01:20;;;;;;;21.27;7.50;;;;;;;;;;5042900;28;20575;-48
2024/01/28 08:03:46;;;;;;;15.30;7.00;;;;;;;;;;5044802;28;20198;-47
2024/01/28 08:06:12;;;;;;;21.87;7.53;;;;;;;;;;5067495;28;20601;-52
2024/01/28 08:08:38;;;;;;;19.73;7.10;;;;;;;;;;5070090;28;20714;-49
2024/01/28 08:11:05;;;;;;;23.37;8.03;;;;;;;;;;5067138;28;20546;-48
2024/01/28 08:13:31;;;;;;;24.73;9.03;;;;;;;;;;5046866;28;20199;-48
2024/01/28 08:16:01;;;;;;;20.83;9.33;;;;;;;;;;5051997;28;20952;-47
2024/01/28 08:18:28;;;;;;;23.13;9.03;;;;;;;;;;5068917;28;20251;-47
2024/01/28 08:20:54;;;;;;;22.97;8.03;;;;;;;;;;5053295;28;20418;-50
2024/01/28 08:23:20;;;;;;;22.17;8.57;;;;;;;;;;5041988;28;20524;-49
2024/01/28 08:25:46;;;;;;;19.80;8.80;;;;;;;;;;5060538;28;20187;-47
2024/01/28 08:28:12;;;;;;;22.00;9.23;;;;;;;;;;5047445;28;20216;-51
2024/01/28 08:30:38;;;;;;;23.97;9.77;;;;;;;;;;5046937;28;20433;-53
2024/01/28 08:33:04;;;;;;;30.43;10.33;;;;;;;;;;5030834;28;20902;-49
2024/01/28 08:35:31;;;;;;;32.07;9.93;;;;;;;;;;5065860;28;20206;-49
2024/01/28 08:38:01;;;;;;;44.23;13.60;;;;;;;;;;5048872;28;20244;-49
2024/01/28 08:40:27;;;;;;;49.60;15.90;;;;;;;;;;5054082;28;20428;-49
2024/01/28 08:42:53;;;;;;;45.67;16.27;;;;;;;;;;5054027;28;20447;-49
2024/01/28 08:45:19;;;;;;;43.87;16.07;;;;;;;;;;5050372;28;20267;-47
2024/01/28 08:47:45;;;;;;;30.07;12.50;;;;;;;;;;5046967;28;20477;-50
2024/01/28 08:50:11;;;;;;;44.93;11.80;;;;;;;;;;5030757;28;20510;-50
2024/01/28 08:52:37;;;;;;;28.93;10.33;;;;;;;;;;5038039;28;20178;-47
2024/01/28 08:55:03;;;;;;;27.47;10.77;;;;;;;;;;5062152;28;20189;-49
2024/01/28 08:57:30;;;;;;;29.77;11.47;;;;;;;;;;5019285;28;20192;-50
2024/01/28 08:59:55;;;;;;;27.70;11.47;;;;;;;;;;5069907;28;20417;-49
2024/01/28 09:02:21;;;;;;;27.00;11.20;;;;;;;;;;5067671;28;20482;-50
2024/01/28 09:04:47;;;;;;;31.40;9.80;;;;;;;;;;5053297;28;20190;-53
2024/01/28 09:07:13;;;;;;;24.53;10.03;;;;;;;;;;5051514;28;20203;-52
2024/01/28 09:09:39;;;;;;;20.93;9.80;;;;;;;;;;5046537;28;20737;-48
2024/01/28 09:12:06;;;;;;;39.67;13.47;;;;;;;;;;5034992;28;20194;-52
2024/01/28 09:14:32;;;;;;;48.90;17.27;;;;;;;;;;5043872;28;20190;-47
2024/01/28 09:16:58;;;;;;;24.63;11.83;;;;;;;;;;5060832;28;20247;-50
2024/01/28 09:19:24;;;;;;;27.63;11.67;;;;;;;;;;5069507;28;20260;-55
2024/01/28 09:21:50;;;;;;;23.27;10.37;;;;;;;;;;5055775;28;20713;-54
2024/01/28 09:24:16;;;;;;;21.30;9.87;;;;;;;;;;5046071;28;20417;-51
2024/01/28 09:26:42;;;;;;;23.73;10.10;;;;;;;;;;5060159;28;20222;-54
2024/01/28 09:29:08;;;;;;;22.10;9.47;;;;;;;;;;5045732;28;20199;-49
2024/01/28 09:31:34;;;;;;;22.80;8.80;;;;;;;;;;5053927;28;20211;-53
2024/01/28 09:34:00;;;;;;;19.77;8.33;;;;;;;;;;5052872;28;20187;-52
2024/01/28 09:36:26;;;;;;;29.73;9.03;;;;;;;;;;5067511;28;20312;-54
2024/01/28 09:38:52;;;;;;;20.70;8.97;;;;;;;;;;5068861;28;20206;-52
2024/01/28 09:41:23;;;;;;;22.60;8.67;;;;;;;;;;5043574;28;20184;-53
2024/01/28 09:43:49;;;;;;;18.07;6.43;;;;;;;;;;5052664;28;20190;-55
2024/01/28 09:46:16;;;;;;;19.67;7.00;;;;;;;;;;5059726;28;20206;-53
2024/01/28 09:48:45;;;;;;;17.83;6.47;;;;;;;;;;5032257;28;21614;-53
2024/01/28 09:51:11;;;;;;;15.33;6.53;;;;;;;;;;5017784;28;20184;-49
2024/01/28 09:53:37;;;;;;;14.13;6.63;;;;;;;;;;5032863;28;20522;-53
2024/01/28 09:56:04;;;;;;;13.40;5.93;;;;;;;;;;5040360;28;20365;-53
2024/01/28 09:58:30;;;;;;;16.37;6.97;;;;;;;;;;5018969;28;20302;-53
2024/01/28 10:00:57;;;;;;;15.87;6.57;;;;;;;;;;5038293;28;20241;-52
2024/01/28 10:03:23;;;;;;;21.27;6.83;;;;;;;;;;5029442;28;20237;-51
2024/01/28 10:05:49;;;;;;;19.37;7.13;;;;;;;;;;5025521;28;20263;-57
2024/01/28 10:08:15;;;;;;;19.20;6.63;;;;;;;;;;5033579;28;20223;-52
2024/01/28 10:10:41;;;;;;;22.67;6.90;;;;;;;;;;5015337;28;20241;-56
2024/01/28 10:13:07;;;;;;;11.67;6.23;;;;;;;;;;5034343;28;20183;-52
2024/01/28 10:15:33;;;;;;;18.43;7.03;;;;;;;;;;5039073;28;20187;-55
2024/01/28 10:18:02;;;;;;;19.60;7.50;;;;;;;;;;5043795;28;20215;-53
2024/01/28 10:20:31;;;;;;;17.37;7.57;;;;;;;;;;5018403;28;20184;-51
2024/01/28 10:22:57;;;;;;;16.93;7.47;;;;;;;;;;5026947;28;20286;-51
2024/01/28 10:25:23;;;;;;;22.17;7.13;;;;;;;;;;5033198;28;20358;-51
2024/01/28 10:27:49;;;;;;;16.97;7.60;;;;;;;;;;5023512;28;20747;-52
2024/01/28 10:30:16;;;;;;;25.33;8.53;;;;;;;;;;5016135;28;20346;-50
2024/01/28 10:32:43;;;;;;;17.50;7.80;;;;;;;;;;5023756;28;20334;-53
2024/01/28 10:35:09;;;;;;;17.73;8.37;;;;;;;;;;5029442;28;20180;-52
2024/01/28 10:37:35;;;;;;;19.80;8.70;;;;;;;;;;5025959;28;20191;-51
2024/01/28 10:40:07;;;;;;;20.40;8.77;;;;;;;;;;5033236;28;20274;-54
2024/01/28 10:42:40;;;;;;;19.47;8.10;;;;;;;;;;5031341;28;20194;-50
2024/01/28 10:45:06;;;;;;;18.63;7.90;;;;;;;;;;5028409;28;20510;-52
2024/01/28 10:47:33;;;;;;;22.83;8.47;;;;;;;;;;5027578;28;20640;-50
2024/01/28 10:50:02;;;;;;;20.93;8.27;;;;;;;;;;5009385;28;20549;-50
2024/01/28 10:52:28;;;;;;;24.77;10.93;;;;;;;;;;5013433;28;20191;-51
2024/01/28 10:54:54;;;;;;;21.87;8.87;;;;;;;;;;5028473;28;20180;-52
2024/01/28 10:57:25;;;;;;;19.13;9.33;;;;;;;;;;5017468;28;20221;-50
2024/01/28 10:59:51;;;;;;;21.23;10.67;;;;;;;;;;5036029;28;20221;-50
2024/01/28 11:02:19;;;;;;;21.63;9.63;;;;;;;;;;5031284;28;20180;-51
2024/01/28 11:04:46;;;;;;;22.73;10.93;;;;;;;;;;5016101;28;20206;-50
2024/01/28 11:07:12;;;;;;;22.43;10.67;;;;;;;;;;5025708;28;20856;-53
2024/01/28 11:09:38;;;;;;;29.13;11.60;;;;;;;;;;5015708;28;20357;-51
2024/01/28 11:12:05;;;;;;;26.50;12.03;;;;;;;;;;5041045;28;20208;-53
2024/01/28 11:14:31;;;;;;;26.03;11.33;;;;;;;;;;5020138;28;20200;-52
2024/01/28 11:16:57;;;;;;;29.10;12.23;;;;;;;;;;5022616;28;20188;-55
2024/01/28 11:19:27;;;;;;;22.20;10.47;;;;;;;;;;5011712;28;20270;-50
2024/01/28 11:21:53;;;;;;;20.17;10.37;;;;;;;;;;5031086;28;20289;-53
2024/01/28 11:24:19;;;;;;;22.93;10.03;;;;;;;;;;5027953;28;20183;-52
2024/01/28 11:26:46;;;;;;;18.13;9.90;;;;;;;;;;5034856;28;20187;-51
2024/01/28 11:29:12;;;;;;;20.07;9.67;;;;;;;;;;5027092;28;20211;-51
2024/01/28 11:31:40;;;;;;;21.87;8.73;;;;;;;;;;5043868;28;20241;-54
2024/01/28 11:34:17;;;;;;;14.67;5.73;;;;;;;;;;5051834;28;20206;-52
2024/01/28 11:36:47;;;;;;;15.67;7.37;;;;;;;;;;5047127;28;20184;-51
2024/01/28 11:39:15;;;;;;;20.63;9.20;;;;;;;;;;5047980;28;20215;-51
2024/01/28 11:41:42;;;;;;;18.00;8.53;;;;;;;;;;5036517;28;20175;-51
2024/01/28 11:44:08;;;;;;;17.17;6.13;;;;;;;;;;5044283;28;20211;-51
2024/01/28 11:46:35;;;;;;;14.47;6.50;;;;;;;;;;4999892;28;20682;-50
2024/01/28 11:49:01;;;;;;;15.13;4.43;;;;;;;;;;5043279;28;20198;-52
2024/01/28 11:51:28;;;;;;;13.17;5.67;;;;;;;;;;5026989;28;20194;-52
2024/01/28 11:53:54;;;;;;;8.90;4.33;;;;;;;;;;5040185;28;20181;-50
2024/01/28 11:56:20;;;;;;;16.63;4.93;;;;;;;;;;5036861;28;20180;-50
2024/01/28 11:58:46;;;;;;;9.77;4.50;;;;;;;;;;5023254;28;20283;-51
2024/01/28 12:01:13;;;;;;;13.90;5.33;;;;;;;;;;5031539;28;20199;-57
2024/01/28 12:03:39;;;;;;;14.80;4.30;;;;;;;;;;5015384;28;20241;-52
2024/01/28 12:06:05;;;;;;;12.93;3.80;;;0.30;99.90;;;;;;5038493;28;20183;-50
2024/01/28 12:08:31;;;;;;;9.67;3.53;;;11.50;99.90;;;;;;5045551;28;20222;-47
2024/01/28 12:11:02;;;;;;;10.03;3.87;;;11.80;99.90;;;;;;5020235;28;20490;-51
2024/01/28 12:13:28;;;;;;;10.10;3.87;;;12.20;99.90;;;;;;5039852;28;20198;-48
2024/01/28 12:15:58;;;;;;;9.43;4.40;;;12.40;99.90;;;;;;5039204;28;20183;-51
2024/01/28 12:18:36;;;;;;;11.93;4.90;;;12.40;99.90;;;;;;5031419;28;20210;-49
2024/01/28 12:21:02;;;;;;;10.50;3.97;;;12.20;99.90;;;;;;5038375;28;20191;-51
2024/01/28 12:23:31;;;;;;;13.13;4.23;;;12.10;99.90;;;;;;5011633;28;20195;-47
2024/01/28 12:25:58;;;;;;;8.77;3.67;;;12.20;99.90;;;;;;5021803;28;20188;-51
2024/01/28 12:28:23;;;;;;;10.93;3.87;;;12.10;99.90;;;;;;5030003;28;20605;-48
2024/01/28 12:30:52;;;;;;;8.63;3.57;;;12.20;99.90;;;;;;5026238;28;20195;-49
2024/01/28 12:33:18;;;;;;;8.03;3.80;;;11.80;99.90;;;;;;5036980;28;20186;-48
2024/01/28 12:35:44;;;;;;;12.30;5.03;;;10.90;99.90;;;;;;5025842;28;20180;-48
2024/01/28 12:38:10;;;;;;;12.43;4.00;;;10.90;99.90;;;;;;5019375;28;20286;-51
2024/01/28 12:40:35;;;;;;;7.50;3.63;;;10.70;99.90;;;;;;5030845;28;20203;-50
2024/01/28 12:43:01;;;;;;;9.37;3.70;;;10.60;99.90;;;;;;5045769;28;20266;-47
2024/01/28 12:45:26;;;;;;;12.30;3.90;;;10.50;99.90;;;;;;5042093;28;20766;-48
2024/01/28 12:47:52;;;;;;;10.60;4.37;;;10.20;99.90;;;;;;5045422;28;20243;-50
2024/01/28 12:50:19;;;;;;;8.87;3.90;;;10.50;99.90;;;;;;5046843;28;20555;-51
2024/01/28 12:52:47;;;;;;;8.50;4.27;;;10.70;99.90;;;;;;5027988;28;20190;-50
2024/01/28 12:55:13;;;;;;;8.67;3.67;;;10.80;99.90;;;;;;5025770;28;20280;-50
2024/01/28 12:57:38;;;;;;;10.10;3.67;;;11.10;99.90;;;;;;5027159;28;20295;-49
2024/01/28 13:00:12;;;;;;;11.87;3.83;;;11.20;99.90;;;;;;5018283;28;20192;-49
2024/01/28 13:02:37;;;;;;;9.70;3.30;;;11.30;99.90;;;;;;5022688;28;20195;-51
2024/01/28 13:05:04;;;;;;;5.63;2.90;;;11.40;99.90;;;;;;5030793;28;20184;-50
2024/01/28 13:07:33;;;;;;;12.73;3.23;;;11.40;99.90;;;;;;5022013;28;20203;-51
2024/01/28 13:09:58;;;;;;;8.83;3.20;;;11.40;99.90;;;;;;5045249;28;20235;-51
2024/01/28 13:12:24;;;;;;;9.97;3.30;;;11.40;99.90;;;;;;5030799;28;20543;-52
2024/01/28 13:14:50;;;;;;;8.97;3.20;;;11.40;99.90;;;;;;5021251;28;20556;-50
2024/01/28 13:17:16;;;;;;;13.47;3.67;;;11.20;99.90;;;;;;5023368;28;20565;-52
2024/01/28 13:19:41;;;;;;;6.37;3.20;;;11.20;99.90;;;;;;5021529;28;20311;-53
2024/01/28 13:22:07;;;;;;;8.60;3.20;;;11.20;99.90;;;;;;5032369;28;20263;-52
2024/01/28 13:24:32;;;;;;;10.47;2.83;;;11.10;99.90;;;;;;5034815;28;20195;-51
2024/01/28 13:26:58;;;;;;;8.77;3.07;;;11.20;99.90;;;;;;5043722;28;20206;-51
2024/01/28 13:29:25;;;;;;;31.37;11.03;;;11.00;99.90;;;;;;5041378;28;20618;-52
2024/01/28 13:31:51;;;;;;;13.30;4.73;;;11.00;99.90;;;;;;5050238;28;20203;-48
2024/01/28 13:34:16;;;;;;;21.43;7.93;;;11.00;99.90;;;;;;5049688;28;20664;-51
2024/01/28 13:36:42;;;;;;;13.43;3.87;;;11.10;99.90;;;;;;5011373;28;20509;-48
2024/01/28 13:39:08;;;;;;;10.70;3.00;;;11.10;99.90;;;;;;5037752;28;20199;-48
2024/01/28 13:41:33;;;;;;;10.30;3.00;;;11.20;99.90;;;;;;5038775;28;20188;-49
2024/01/28 13:43:59;;;;;;;9.77;4.33;;;11.30;99.90;;;;;;5035748;28;20257;-49
2024/01/28 13:46:24;;;;;;;8.50;3.07;;;11.40;99.90;;;;;;5037128;28;20299;-51
2024/01/28 13:48:50;;;;;;;6.33;2.93;;;11.40;99.90;;;;;;5027543;28;20706;-50
2024/01/28 13:51:15;;;;;;;6.73;2.70;;;11.40;99.90;;;;;;5040926;28;20561;-48
2024/01/28 13:53:41;;;;;;;8.43;2.80;;;11.40;99.90;;;;;;5036985;28;20278;-49
2024/01/28 13:56:07;;;;;;;8.80;3.10;;;11.30;99.90;;;;;;5035924;28;20233;-51
2024/01/28 13:58:33;;;;;;;11.60;2.80;;;11.20;99.90;;;;;;5040500;28;20686;-54
2024/01/28 14:01:01;;;;;;;8.50;3.37;;;11.30;99.90;;;;;;5042642;28;20183;-48
2024/01/28 14:03:27;;;;;;;8.80;2.93;;;11.30;99.90;;;;;;5035275;28;20673;-51
2024/01/28 14:05:52;;;;;;;6.77;3.27;;;11.10;99.90;;;;;;5014193;28;20274;-54